SAZR/RSA METAR and TAF weather

Enter ICAO airport designator
Station Type Date Time Source
SAZR METAR 2023/12/08 20:14 UTC NOAA

SAZR 082014Z 03018G29KT CAVOK 29/10 Q1011


Station Type Date Time Source
SAZR Decoded METAR 2023/12/08 20:14 UTC NOAA

Santa Rosa Aerodrome, Argentina (SAZR) 36-34S 064-16W 191M
Dec 08, 2023 - 03:14 PM EST / 2023.12.08 2014 UTC
Wind: from the NNE (030 degrees) at 21 MPH (18 KT) gusting to 33 MPH (29 KT):0
Visibility: greater than 7 mile(s):0
Temperature: 84 F (29 C)
Dew Point: 50 F (10 C)
Relative Humidity: 30%
Pressure (altimeter): 29.85 in. Hg (1011 hPa)
ob: SAZR 082014Z 03018G29KT CAVOK 29/10 Q1011
cycle: 20

Station Type Date Time Source
SAZR TAF 2023/12/04 18:30 UTC NOAA

TAF SAZR 041700Z 0418/0518 05015G25KT CAVOK TX25/0419Z TN15/0509Z
BECMG 0422/0424 05006KT
BECMG 0511/0513 05015G25KT

Example: see airport list